Strona główna
METAR-TAF:

METAR-TAF

Lotnisko :

Port lotniczy Praia

Praia, Republika Zielonego Przylądka

Szerokość geograficzna: 14-55-27N, Długość geograficzna: 23-29-38W, wysokość: 70 m

Aktualna obserwacja pogody

Raport powstał 25 minut temu, godzina 06:00 UTC
Wiatr 17 kt od północny wschód
Temperatura 25°C
Wilgotność 79%
Ciśnienie 1013 hPa
Widzialność 10 km lub więcej
Mało chmury na wysokości 1600 ft
Przerywane chmury na wysokości 10000 ft

METAR: GVNP 220600Z 04017KT 9999 FEW016 BKN100 25/21 Q1013 NOSIG

czas: 05:25 (06:25 UTC)

Prognoza

Raport powstał 1 godzina i 25 minut temu, godzina 05:00 UTC
Prognoza ważna od 22 godzina 06 UTC do 23 godzina 12 UTC
Wiatr 12 kt od północno-północny wschód
Widzialność 10 km lub więcej
Rozproszone chmury na wysokości 1500 ft
Prawdopodobieństwo 30% :
Przejściowo
od 22 godzina 09 UTC do 22 godzina 13 UTC
Mało chmury na wysokości 1300 ft
Przerywane chmury na wysokości 1700 ft
słaby deszcz

TAF: GVNP 220500Z 2206/2312 03012KT 9999 SCT015 PROB30 TEMPO 2209/2213 -RA FEW013 BKN017

Obserwacja i prognoza pogody dla ponad 4000 lotnisk (raport METAR i TAF).

Dostępne stacje oznaczono żółtymi i czerwonymi punktami na mapie.

Najedź kursorem aby zobaczyć nazwę stacji.

Kliknij aby zobaczyć obserwacje i prognozy pogody.

Aby zmienić mapę: kliknij na zielony przycisk z czarnym krzyżykiem, aby powiększyć; na zielony przycisk z myślnikiem, aby pomniejszyć; na zielone strzałki, aby przejść do map sąsiednich.


METAR-TAF: